Chadderton, United Kingdom
Current Conditions -  °F | °C
As of 6:20 PM on Saturday 20 Dec 2014 (Local Time) from EGCC Reporting Station
Few Clouds Few Clouds  
Wind Chill: 39°   Ceiling: Unl
Heat Index: 45°   Visibility: 6mi
Dew Point: 39°   Wind: 10mph
Humidity: 81%   Direction: 280°W
Pressure: 30.33"   Gusts: NA
Location:  53.55°N, 2.16°W
Report Text: EGCC 201820Z 28009KT 9999 FEW019 07/04 Q1027 NOSIG
Loading
Personal Weather Stations






























Interactive Weather Map New forecast layout! Learn more

10-Day Weather Forecast

Advertisements
Track Severe Weather on mobile